Time;durP1;ratioP1;P1;durP2;ratioP2;P2;SDS_P1;SDS_P2;PMS_P1;PMS_P2;Temp;Humidity;BMP_temperature;BMP_pressure;BME280_temperature;BME280_humidity;BME280_pressure;Samples;Min_cycle;Max_cycle;Signal;HPM_P1;HPM_P2
2021/07/19 00:00:37;;;;;;;6.32;4.72;;;;;;;;;;5074735;28;20028;-43
2021/07/19 00:03:04;;;;;;;6.63;4.30;;;;;;;;;;5074972;28;20525;-43
2021/07/19 00:05:31;;;;;;;42.53;32.88;;;;;;;;;;5074651;28;20133;-42
2021/07/19 00:07:57;;;;;;;15.73;11.50;;;;;;;;;;5074847;28;20048;-43
2021/07/19 00:10:25;;;;;;;19.95;14.30;;;;;;;;;;5074313;28;20100;-43
2021/07/19 00:12:54;;;;;;;83.00;68.15;;;;;;;;;;5074394;28;20024;-43
2021/07/19 00:15:22;;;;;;;38.05;30.75;;;;;;;;;;5074185;28;20073;-43
2021/07/19 00:17:48;;;;;;;9.38;8.32;;;;;;;;;;5074364;28;20052;-42
2021/07/19 00:20:17;;;;;;;5.95;4.25;;;;;;;;;;5074310;28;20090;-43
2021/07/19 00:22:44;;;;;;;35.55;30.85;;;;;;;;;;5074442;28;20019;-43
2021/07/19 00:25:11;;;;;;;20.88;18.15;;;;;;;;;;5074384;28;20393;-43
2021/07/19 00:27:38;;;;;;;14.75;11.55;;;;;;;;;;5074041;28;20031;-43
2021/07/19 00:30:06;;;;;;;19.42;14.52;;;;;;;;;;5074086;28;20427;-42
2021/07/19 00:32:32;;;;;;;13.05;9.95;;;;;;;;;;5074101;28;20025;-43
2021/07/19 00:34:58;;;;;;;7.50;6.60;;;;;;;;;;5073834;28;20081;-42
2021/07/19 00:37:24;;;;;;;5.32;4.80;;;;;;;;;;5074138;28;20066;-43
2021/07/19 00:39:50;;;;;;;4.95;3.60;;;;;;;;;;5074136;28;20029;-43
2021/07/19 00:42:16;;;;;;;16.88;14.30;;;;;;;;;;5073821;28;20021;-43
2021/07/19 00:44:42;;;;;;;12.90;11.02;;;;;;;;;;5073810;28;20167;-44
2021/07/19 00:47:10;;;;;;;14.20;9.35;;;;;;;;;;5073843;28;20036;-45
2021/07/19 00:49:37;;;;;;;16.05;10.27;;;;;;;;;;5073803;28;20024;-46
2021/07/19 00:52:03;;;;;;;6.20;4.40;;;;;;;;;;5073856;28;20384;-45
2021/07/19 00:54:31;;;;;;;3.90;3.25;;;;;;;;;;5073732;28;20036;-46
2021/07/19 00:56:58;;;;;;;3.42;2.55;;;;;;;;;;5073812;28;20070;-45
2021/07/19 00:59:25;;;;;;;10.45;8.00;;;;;;;;;;5073620;28;20064;-45
2021/07/19 01:01:53;;;;;;;24.65;19.67;;;;;;;;;;5073556;28;20024;-45
2021/07/19 01:04:20;;;;;;;23.40;17.40;;;;;;;;;;5073684;28;20491;-46
2021/07/19 01:06:47;;;;;;;20.05;15.05;;;;;;;;;;5073500;28;20105;-43
2021/07/19 01:09:13;;;;;;;13.15;9.68;;;;;;;;;;5073506;28;20101;-44
2021/07/19 01:11:39;;;;;;;5.60;4.78;;;;;;;;;;5073392;28;20025;-44
2021/07/19 01:14:05;;;;;;;3.97;2.65;;;;;;;;;;5073313;28;20131;-46
2021/07/19 01:16:32;;;;;;;6.32;4.85;;;;;;;;;;5073552;28;20127;-45
2021/07/19 01:18:58;;;;;;;9.43;7.05;;;;;;;;;;5073287;28;20096;-46
2021/07/19 01:21:47;;;;;;;13.90;9.65;;;;;;;;;;5073405;28;20434;-46
2021/07/19 01:24:16;;;;;;;27.08;18.90;;;;;;;;;;5073375;28;20396;-45
2021/07/19 01:26:51;;;;;;;8.27;6.10;;;;;;;;;;5073183;28;20051;-45
2021/07/19 01:29:19;;;;;;;7.70;6.07;;;;;;;;;;5073164;28;20033;-46
2021/07/19 01:31:46;;;;;;;3.85;2.72;;;;;;;;;;5073212;28;20035;-45
2021/07/19 01:34:15;;;;;;;2.55;2.10;;;;;;;;;;5073172;28;20021;-45
2021/07/19 01:36:44;;;;;;;3.35;2.30;;;;;;;;;;5073188;28;20465;-45
2021/07/19 01:39:10;;;;;;;1.63;1.52;;;;;;;;;;5073401;28;20107;-45
2021/07/19 01:41:37;;;;;;;2.35;1.40;;;;;;;;;;5073139;28;20028;-45
2021/07/19 01:44:04;;;;;;;3.58;1.73;;;;;;;;;;5073100;28;20061;-45
2021/07/19 01:46:30;;;;;;;2.28;1.75;;;;;;;;;;5073349;28;20480;-43
2021/07/19 01:48:57;;;;;;;3.45;1.55;;;;;;;;;;5073133;28;20020;-43
2021/07/19 01:51:24;;;;;;;12.88;9.35;;;;;;;;;;5073038;28;20027;-44
2021/07/19 01:53:51;;;;;;;7.10;5.38;;;;;;;;;;5073009;28;20028;-43
2021/07/19 01:56:18;;;;;;;5.07;4.57;;;;;;;;;;5073037;28;20027;-43
2021/07/19 01:58:44;;;;;;;8.48;6.28;;;;;;;;;;5072957;28;20035;-44
2021/07/19 02:01:12;;;;;;;17.48;12.35;;;;;;;;;;5073015;28;20104;-44
2021/07/19 02:03:38;;;;;;;6.85;3.35;;;;;;;;;;5073108;28;20043;-45
2021/07/19 02:06:05;;;;;;;9.73;7.35;;;;;;;;;;5073047;28;20516;-45
2021/07/19 02:08:32;;;;;;;4.15;3.70;;;;;;;;;;5073093;28;20028;-44
2021/07/19 02:10:58;;;;;;;3.15;2.60;;;;;;;;;;5072935;28;20024;-44
2021/07/19 02:13:30;;;;;;;3.80;3.00;;;;;;;;;;5072928;28;20081;-44
2021/07/19 02:15:57;;;;;;;4.40;1.92;;;;;;;;;;5072573;28;20052;-45
2021/07/19 02:18:24;;;;;;;5.82;4.32;;;;;;;;;;5072910;28;20024;-45
2021/07/19 02:20:51;;;;;;;4.75;3.47;;;;;;;;;;5073108;28;20024;-46
2021/07/19 02:23:17;;;;;;;6.60;5.28;;;;;;;;;;5071462;28;20033;-44
2021/07/19 02:25:44;;;;;;;4.57;3.90;;;;;;;;;;5072856;28;20434;-43
2021/07/19 02:28:11;;;;;;;5.55;3.63;;;;;;;;;;5072467;28;20031;-43
2021/07/19 02:30:38;;;;;;;4.65;2.60;;;;;;;;;;5072720;28;20049;-43
2021/07/19 02:33:04;;;;;;;2.25;1.85;;;;;;;;;;5073076;28;20103;-43
2021/07/19 02:35:31;;;;;;;2.45;1.88;;;;;;;;;;5076371;28;20059;-43
2021/07/19 02:38:02;;;;;;;2.38;2.15;;;;;;;;;;5076315;28;20025;-43
2021/07/19 02:40:29;;;;;;;2.53;1.90;;;;;;;;;;5076321;28;20032;-43
2021/07/19 02:43:05;;;;;;;2.90;1.60;;;;;;;;;;5076307;28;20104;-43
2021/07/19 02:45:35;;;;;;;2.22;2.00;;;;;;;;;;5076081;28;20037;-44
2021/07/19 02:48:03;;;;;;;5.32;2.50;;;;;;;;;;5076359;28;20024;-44
2021/07/19 02:50:30;;;;;;;2.83;2.17;;;;;;;;;;5076162;28;20027;-43
2021/07/19 02:53:00;;;;;;;4.07;2.40;;;;;;;;;;5076185;28;20074;-44
2021/07/19 02:55:28;;;;;;;2.73;2.17;;;;;;;;;;5075989;28;20033;-43
2021/07/19 02:57:55;;;;;;;3.78;2.30;;;;;;;;;;5076020;28;20029;-44
2021/07/19 03:00:21;;;;;;;4.38;2.28;;;;;;;;;;5076028;28;20025;-43
2021/07/19 03:02:49;;;;;;;2.80;2.10;;;;;;;;;;5076019;28;20056;-44
2021/07/19 03:05:17;;;;;;;2.50;2.30;;;;;;;;;;5076199;28;20031;-45
2021/07/19 03:07:45;;;;;;;4.60;2.25;;;;;;;;;;5075902;28;20033;-46
2021/07/19 03:10:11;;;;;;;5.10;2.67;;;;;;;;;;5075877;28;20036;-49
2021/07/19 03:12:40;;;;;;;2.58;2.00;;;;;;;;;;5075758;28;20028;-53
2021/07/19 03:15:06;;;;;;;2.92;2.38;;;;;;;;;;5075547;28;20048;-43
2021/07/19 03:17:33;;;;;;;6.43;2.60;;;;;;;;;;5075698;28;20021;-44
2021/07/19 03:19:59;;;;;;;4.82;2.50;;;;;;;;;;5075743;28;20476;-44
2021/07/19 03:22:26;;;;;;;2.10;1.90;;;;;;;;;;5075606;28;20024;-43
2021/07/19 03:24:53;;;;;;;8.60;6.47;;;;;;;;;;5075455;28;20082;-43
2021/07/19 03:27:22;;;;;;;10.68;5.80;;;;;;;;;;5075638;28;20025;-43
2021/07/19 03:29:49;;;;;;;11.07;8.02;;;;;;;;;;5075372;28;20065;-43
2021/07/19 03:32:16;;;;;;;14.93;8.50;;;;;;;;;;5075508;28;20380;-44
2021/07/19 03:34:42;;;;;;;8.20;6.05;;;;;;;;;;5075388;28;20036;-45
2021/07/19 03:37:09;;;;;;;16.30;9.70;;;;;;;;;;5075319;28;20430;-43
2021/07/19 03:39:37;;;;;;;10.18;5.82;;;;;;;;;;5075441;28;20024;-44
2021/07/19 03:42:04;;;;;;;8.05;6.43;;;;;;;;;;5075204;28;20012;-45
2021/07/19 03:44:30;;;;;;;7.20;4.18;;;;;;;;;;5075026;28;20031;-44
2021/07/19 03:46:56;;;;;;;7.43;5.07;;;;;;;;;;5074885;28;20388;-45
2021/07/19 03:49:23;;;;;;;8.07;5.43;;;;;;;;;;5075268;28;20024;-44
2021/07/19 03:51:50;;;;;;;7.57;6.30;;;;;;;;;;5075234;28;20028;-44
2021/07/19 03:54:16;;;;;;;5.97;4.65;;;;;;;;;;5074865;28;20032;-44
2021/07/19 03:56:43;;;;;;;3.42;3.13;;;;;;;;;;5075063;28;20059;-44
2021/07/19 03:59:09;;;;;;;4.90;4.40;;;;;;;;;;5074930;28;20051;-44
2021/07/19 04:01:36;;;;;;;3.75;3.33;;;;;;;;;;5075064;28;20369;-44
2021/07/19 04:04:08;;;;;;;5.70;4.30;;;;;;;;;;5074823;28;20036;-44
2021/07/19 04:06:34;;;;;;;4.38;3.92;;;;;;;;;;5074764;28;20381;-44
2021/07/19 04:09:01;;;;;;;3.45;3.10;;;;;;;;;;5074643;28;20240;-44
2021/07/19 04:11:27;;;;;;;3.25;2.90;;;;;;;;;;5074635;28;20028;-44
2021/07/19 04:13:54;;;;;;;7.93;3.60;;;;;;;;;;5074329;28;20511;-43
2021/07/19 04:16:20;;;;;;;2.80;2.50;;;;;;;;;;5074449;28;20102;-44
2021/07/19 04:18:47;;;;;;;3.28;2.67;;;;;;;;;;5074547;28;20029;-44
2021/07/19 04:21:15;;;;;;;4.53;2.60;;;;;;;;;;5074604;28;20055;-43
2021/07/19 04:23:42;;;;;;;4.88;3.08;;;;;;;;;;5074605;28;20404;-43
2021/07/19 04:26:11;;;;;;;4.22;2.80;;;;;;;;;;5074534;28;20028;-43
2021/07/19 04:28:38;;;;;;;3.25;2.70;;;;;;;;;;5074235;28;20036;-43
2021/07/19 04:31:04;;;;;;;4.40;3.40;;;;;;;;;;5074365;28;20035;-43
2021/07/19 04:33:31;;;;;;;4.13;3.60;;;;;;;;;;5074372;28;20032;-44
2021/07/19 04:35:57;;;;;;;3.85;3.47;;;;;;;;;;5074209;28;20025;-43
2021/07/19 04:38:23;;;;;;;3.58;3.28;;;;;;;;;;5072738;28;20078;-45
2021/07/19 04:40:54;;;;;;;6.55;5.10;;;;;;;;;;5074298;28;20033;-44
2021/07/19 04:43:20;;;;;;;10.15;5.07;;;;;;;;;;5073930;28;20085;-44
2021/07/19 04:45:47;;;;;;;3.20;2.90;;;;;;;;;;5074080;28;20039;-44
2021/07/19 04:48:13;;;;;;;3.10;2.80;;;;;;;;;;5074153;28;20028;-44
2021/07/19 04:50:40;;;;;;;3.45;2.58;;;;;;;;;;5074207;28;20032;-44
2021/07/19 04:53:06;;;;;;;4.38;2.53;;;;;;;;;;5073943;28;20032;-44
2021/07/19 04:55:34;;;;;;;3.17;2.88;;;;;;;;;;5074073;28;20032;-44
2021/07/19 04:58:01;;;;;;;3.10;2.80;;;;;;;;;;5073167;28;20020;-44
2021/07/19 05:00:28;;;;;;;5.60;2.70;;;;;;;;;;5073835;28;20103;-44
2021/07/19 05:02:55;;;;;;;3.92;2.80;;;;;;;;;;5073696;28;20020;-44
2021/07/19 05:05:22;;;;;;;7.95;4.88;;;;;;;;;;5073555;28;20472;-43
2021/07/19 05:07:50;;;;;;;3.90;3.50;;;;;;;;;;5073497;28;20054;-44
2021/07/19 05:10:16;;;;;;;6.90;5.28;;;;;;;;;;5073693;28;20078;-44
2021/07/19 05:12:46;;;;;;;5.63;4.45;;;;;;;;;;5073433;28;20077;-44
2021/07/19 05:15:12;;;;;;;4.35;3.00;;;;;;;;;;5073371;28;20124;-44
2021/07/19 05:17:40;;;;;;;4.13;3.38;;;;;;;;;;5073468;28;20032;-43
2021/07/19 05:20:11;;;;;;;3.70;2.90;;;;;;;;;;5073366;28;20081;-44
2021/07/19 05:22:37;;;;;;;7.07;4.28;;;;;;;;;;5073365;28;20025;-44
2021/07/19 05:25:03;;;;;;;3.03;2.80;;;;;;;;;;5073516;28;20545;-44
2021/07/19 05:27:29;;;;;;;3.65;2.70;;;;;;;;;;5073527;28;20389;-44
2021/07/19 05:29:55;;;;;;;5.15;4.00;;;;;;;;;;5073417;28;20464;-44
2021/07/19 05:32:21;;;;;;;4.30;3.25;;;;;;;;;;5073430;28;20109;-44
2021/07/19 05:34:48;;;;;;;4.07;3.20;;;;;;;;;;5073430;28;20036;-45
2021/07/19 05:37:14;;;;;;;3.97;3.00;;;;;;;;;;5073187;28;20108;-45
2021/07/19 05:39:40;;;;;;;4.18;3.78;;;;;;;;;;5073179;28;20020;-45
2021/07/19 05:42:06;;;;;;;5.60;3.53;;;;;;;;;;5073242;28;20031;-45
2021/07/19 05:44:32;;;;;;;4.03;3.55;;;;;;;;;;5073123;28;20025;-44
2021/07/19 05:47:00;;;;;;;4.30;3.60;;;;;;;;;;5073063;28;20381;-44
2021/07/19 05:49:26;;;;;;;4.93;3.47;;;;;;;;;;5073018;28;20037;-44
2021/07/19 05:51:53;;;;;;;6.00;3.90;;;;;;;;;;5073168;28;20449;-44
2021/07/19 05:54:21;;;;;;;5.63;3.55;;;;;;;;;;5073022;28;20028;-44
2021/07/19 05:56:47;;;;;;;4.82;4.00;;;;;;;;;;5073261;28;20149;-43
2021/07/19 05:59:13;;;;;;;4.95;4.38;;;;;;;;;;5073142;28;20025;-44
2021/07/19 06:01:39;;;;;;;7.47;4.20;;;;;;;;;;5073109;28;20036;-44
2021/07/19 06:04:05;;;;;;;5.60;3.80;;;;;;;;;;5073010;28;20091;-44
2021/07/19 06:06:32;;;;;;;5.72;3.83;;;;;;;;;;5073159;28;20099;-44
2021/07/19 06:08:58;;;;;;;7.53;6.07;;;;;;;;;;5074799;28;20051;-44
2021/07/19 06:11:24;;;;;;;21.15;11.05;;;;;;;;;;5077047;28;20069;-44
2021/07/19 06:13:50;;;;;;;16.25;9.45;;;;;;;;;;5076582;28;20471;-45
2021/07/19 06:16:16;;;;;;;9.98;6.40;;;;;;;;;;5076695;28;20049;-43
2021/07/19 06:18:42;;;;;;;13.75;5.85;;;;;;;;;;5076875;28;20028;-45
2021/07/19 06:21:09;;;;;;;8.10;5.88;;;;;;;;;;5076890;28;20047;-44
2021/07/19 06:23:35;;;;;;;8.40;5.40;;;;;;;;;;5076868;28;20029;-44
2021/07/19 06:26:01;;;;;;;6.60;4.25;;;;;;;;;;5076587;28;20519;-45
2021/07/19 06:28:29;;;;;;;6.28;4.15;;;;;;;;;;5076550;28;20064;-45
2021/07/19 06:30:55;;;;;;;7.07;4.57;;;;;;;;;;5076682;28;20013;-45
2021/07/19 06:33:21;;;;;;;10.38;4.88;;;;;;;;;;5076778;28;20562;-45
2021/07/19 06:35:47;;;;;;;12.32;8.55;;;;;;;;;;5076406;28;20073;-45
2021/07/19 06:38:14;;;;;;;13.23;8.43;;;;;;;;;;5076277;28;20027;-44
2021/07/19 06:40:40;;;;;;;6.72;4.72;;;;;;;;;;5076534;28;20116;-44
2021/07/19 06:43:06;;;;;;;7.72;4.13;;;;;;;;;;5076612;28;20093;-45
2021/07/19 06:45:32;;;;;;;6.68;4.20;;;;;;;;;;5076130;28;20439;-44
2021/07/19 06:47:58;;;;;;;11.50;5.25;;;;;;;;;;5076340;28;20063;-44
2021/07/19 06:50:25;;;;;;;9.30;5.25;;;;;;;;;;5076134;28;20488;-44
2021/07/19 06:52:53;;;;;;;10.82;5.50;;;;;;;;;;5076041;28;20108;-43
2021/07/19 06:55:19;;;;;;;13.80;5.80;;;;;;;;;;5076442;28;20091;-44
2021/07/19 06:57:45;;;;;;;15.25;7.82;;;;;;;;;;5076083;28;20044;-44
2021/07/19 07:00:12;;;;;;;24.85;15.80;;;;;;;;;;5075846;28;20099;-44
2021/07/19 07:02:38;;;;;;;32.30;19.63;;;;;;;;;;5075983;28;20059;-44
2021/07/19 07:05:05;;;;;;;20.88;10.43;;;;;;;;;;5076075;28;20035;-44
2021/07/19 07:07:31;;;;;;;28.60;14.40;;;;;;;;;;5075794;28;20354;-45
2021/07/19 07:09:57;;;;;;;42.58;24.75;;;;;;;;;;5075793;28;20020;-45
2021/07/19 07:12:23;;;;;;;19.20;11.13;;;;;;;;;;5076063;28;20032;-45
2021/07/19 07:14:49;;;;;;;26.98;15.80;;;;;;;;;;5075366;28;20139;-45
2021/07/19 07:17:15;;;;;;;66.20;43.45;;;;;;;;;;5076028;28;20058;-45
2021/07/19 07:19:43;;;;;;;19.98;10.90;;;;;;;;;;5074964;28;20067;-44
2021/07/19 07:22:10;;;;;;;14.57;9.43;;;;;;;;;;5075377;28;20024;-45
2021/07/19 07:24:40;;;;;;;12.00;8.07;;;;;;;;;;5075981;28;20028;-44
2021/07/19 07:27:07;;;;;;;11.73;9.13;;;;;;;;;;5075912;28;20117;-44
2021/07/19 07:29:33;;;;;;;16.80;10.48;;;;;;;;;;5075577;28;20388;-45
2021/07/19 07:31:59;;;;;;;22.13;12.63;;;;;;;;;;5075397;28;20024;-43
2021/07/19 07:34:25;;;;;;;18.95;12.35;;;;;;;;;;5075440;28;20033;-44
2021/07/19 07:36:51;;;;;;;17.00;10.95;;;;;;;;;;5075274;28;20138;-45
2021/07/19 07:39:17;;;;;;;28.90;18.10;;;;;;;;;;5075164;28;20032;-44
2021/07/19 07:41:43;;;;;;;21.73;14.57;;;;;;;;;;5075303;28;20492;-44
2021/07/19 07:44:11;;;;;;;16.10;11.60;;;;;;;;;;5074892;28;20020;-44
2021/07/19 07:46:38;;;;;;;13.68;8.77;;;;;;;;;;5075250;28;20477;-45
2021/07/19 07:49:04;;;;;;;27.42;17.83;;;;;;;;;;5075312;28;20029;-44
2021/07/19 07:51:30;;;;;;;27.50;15.10;;;;;;;;;;5075011;28;20442;-44
2021/07/19 07:53:58;;;;;;;12.43;7.97;;;;;;;;;;5075349;28;20460;-44
2021/07/19 07:56:25;;;;;;;16.90;9.85;;;;;;;;;;5074933;28;20067;-44
2021/07/19 07:58:51;;;;;;;10.45;8.30;;;;;;;;;;5074959;28;20549;-44
2021/07/19 08:01:17;;;;;;;11.70;7.75;;;;;;;;;;5074855;28;20392;-44
2021/07/19 08:03:43;;;;;;;11.45;7.82;;;;;;;;;;5074904;28;20066;-45
2021/07/19 08:06:09;;;;;;;5.88;5.00;;;;;;;;;;5074739;28;20025;-45
2021/07/19 08:08:35;;;;;;;7.53;5.47;;;;;;;;;;5074869;28;20101;-45
2021/07/19 08:11:02;;;;;;;10.63;6.78;;;;;;;;;;5074659;28;20025;-45
2021/07/19 08:13:28;;;;;;;7.63;6.18;;;;;;;;;;5074689;28;20024;-46
2021/07/19 08:15:54;;;;;;;10.95;6.00;;;;;;;;;;5074331;28;20056;-46
2021/07/19 08:18:20;;;;;;;7.35;5.72;;;;;;;;;;5074673;28;20392;-46
2021/07/19 08:20:46;;;;;;;6.03;5.07;;;;;;;;;;5074506;28;20115;-43
2021/07/19 08:23:13;;;;;;;9.57;5.32;;;;;;;;;;5074516;28;20020;-45
2021/07/19 08:25:39;;;;;;;7.70;6.22;;;;;;;;;;5074539;28;20028;-46
2021/07/19 08:28:05;;;;;;;11.90;8.73;;;;;;;;;;5074519;28;20078;-44
2021/07/19 08:30:31;;;;;;;12.68;7.65;;;;;;;;;;5038523;28;20021;-45
2021/07/19 08:32:58;;;;;;;9.85;7.00;;;;;;;;;;5034379;28;20158;-43
2021/07/19 08:35:25;;;;;;;8.77;6.32;;;;;;;;;;5034380;28;20116;-46
2021/07/19 08:37:56;;;;;;;10.77;6.50;;;;;;;;;;5033970;28;20025;-45
2021/07/19 08:40:23;;;;;;;11.20;6.47;;;;;;;;;;5034398;28;20036;-45
2021/07/19 08:42:49;;;;;;;9.00;6.60;;;;;;;;;;5034304;28;20385;-45
2021/07/19 08:45:16;;;;;;;13.93;8.05;;;;;;;;;;5033791;28;20025;-45
2021/07/19 08:47:43;;;;;;;9.05;6.55;;;;;;;;;;5034544;28;20108;-45
2021/07/19 08:50:10;;;;;;;9.07;6.47;;;;;;;;;;5035207;28;20025;-45
2021/07/19 08:52:37;;;;;;;15.38;8.65;;;;;;;;;;5033845;28;20025;-45
2021/07/19 08:55:05;;;;;;;12.02;7.80;;;;;;;;;;5035009;28;20034;-44
2021/07/19 08:57:31;;;;;;;10.88;6.93;;;;;;;;;;5034578;28;20026;-44
2021/07/19 08:59:58;;;;;;;7.50;5.47;;;;;;;;;;5034572;28;20033;-49
2021/07/19 09:02:24;;;;;;;8.70;6.75;;;;;;;;;;5034058;28;20021;-45
2021/07/19 09:04:50;;;;;;;9.23;5.75;;;;;;;;;;5035146;28;20021;-46
2021/07/19 09:07:17;;;;;;;9.18;5.55;;;;;;;;;;5033728;28;20029;-44
2021/07/19 09:09:43;;;;;;;12.75;6.18;;;;;;;;;;5033796;28;20017;-44
2021/07/19 09:12:10;;;;;;;11.82;5.60;;;;;;;;;;5034041;28;20109;-44
2021/07/19 09:14:40;;;;;;;9.85;5.10;;;;;;;;;;5033314;28;20053;-44
2021/07/19 09:17:06;;;;;;;8.30;5.33;;;;;;;;;;5033468;28;20045;-44
2021/07/19 09:19:32;;;;;;;9.35;5.45;;;;;;;;;;5033696;28;20057;-45
2021/07/19 09:22:00;;;;;;;9.00;5.63;;;;;;;;;;5033540;28;20017;-45
2021/07/19 09:24:37;;;;;;;24.13;16.80;;;;;;;;;;5033629;28;20040;-44
2021/07/19 09:27:03;;;;;;;41.15;31.70;;;;;;;;;;5033204;28;20028;-43
2021/07/19 09:29:35;;;;;;;59.03;45.33;;;;;;;;;;5033247;28;20037;-44
2021/07/19 09:32:02;;;;;;;63.03;43.85;;;;;;;;;;5033453;28;20022;-44
2021/07/19 09:34:32;;;;;;;52.45;35.63;;;;;;;;;;5033091;28;20044;-45
2021/07/19 09:37:01;;;;;;;27.40;21.70;;;;;;;;;;5051481;28;20044;-45
2021/07/19 09:39:27;;;;;;;16.20;12.50;;;;;;;;;;5053270;28;20039;-45
2021/07/19 09:42:09;;;;;;;13.65;9.68;;;;;;;;;;5053137;28;20477;-44
2021/07/19 09:44:35;;;;;;;15.55;9.68;;;;;;;;;;5052633;28;20060;-44
2021/07/19 09:47:02;;;;;;;15.23;10.57;;;;;;;;;;5053111;28;20067;-45
2021/07/19 09:49:29;;;;;;;37.20;26.83;;;;;;;;;;5053187;28;20576;-46
2021/07/19 09:51:59;;;;;;;20.92;13.43;;;;;;;;;;5053003;28;20037;-44
2021/07/19 09:54:32;;;;;;;22.20;15.63;;;;;;;;;;5052902;28;20083;-44
2021/07/19 09:57:00;;;;;;;14.73;11.25;;;;;;;;;;5053119;28;20534;-45
2021/07/19 09:59:26;;;;;;;15.43;12.00;;;;;;;;;;5052774;28;20067;-44
2021/07/19 10:01:53;;;;;;;20.42;15.13;;;;;;;;;;5052916;28;20033;-45
2021/07/19 10:04:21;;;;;;;16.48;12.02;;;;;;;;;;5053031;28;20025;-43
2021/07/19 10:06:49;;;;;;;14.65;10.75;;;;;;;;;;5052984;28;20072;-45
2021/07/19 10:09:16;;;;;;;27.00;18.80;;;;;;;;;;5052840;28;20033;-46
2021/07/19 10:12:05;;;;;;;14.68;11.45;;;;;;;;;;5052792;28;20021;-46
2021/07/19 10:14:33;;;;;;;12.93;9.52;;;;;;;;;;5052021;28;20493;-44
2021/07/19 10:17:00;;;;;;;14.15;8.93;;;;;;;;;;5052620;28;20033;-44
2021/07/19 10:19:27;;;;;;;12.63;9.02;;;;;;;;;;5052812;28;20117;-44
2021/07/19 10:21:53;;;;;;;9.65;7.30;;;;;;;;;;5052800;28;20091;-45
2021/07/19 10:24:20;;;;;;;13.93;9.60;;;;;;;;;;5051949;28;20029;-46
2021/07/19 10:26:47;;;;;;;21.15;16.67;;;;;;;;;;5051353;28;20473;-46
2021/07/19 10:29:15;;;;;;;18.95;13.15;;;;;;;;;;5051217;28;20031;-47
2021/07/19 10:31:41;;;;;;;13.85;9.80;;;;;;;;;;5051017;28;20074;-47
2021/07/19 10:34:07;;;;;;;9.82;8.15;;;;;;;;;;5052589;28;20033;-46
2021/07/19 10:36:37;;;;;;;20.05;13.70;;;;;;;;;;5052638;28;20025;-46
2021/07/19 10:39:11;;;;;;;21.27;15.15;;;;;;;;;;5052497;28;20466;-44
2021/07/19 10:41:38;;;;;;;13.88;10.93;;;;;;;;;;5052600;28;20041;-45
2021/07/19 10:44:05;;;;;;;20.88;16.80;;;;;;;;;;5052348;28;20032;-44
2021/07/19 10:46:32;;;;;;;19.95;14.63;;;;;;;;;;5052743;28;20381;-45
2021/07/19 10:49:07;;;;;;;32.33;13.90;;;;;;;;;;5052770;28;20025;-45
2021/07/19 10:51:45;;;;;;;23.58;14.05;;;;;;;;;;5052675;28;20095;-43
2021/07/19 10:54:23;;;;;;;18.20;9.45;;;;;;;;;;5052463;28;20036;-45
2021/07/19 10:56:51;;;;;;;16.70;7.00;;;;;;;;;;5055748;28;20384;-46
2021/07/19 10:59:43;;;;;;;13.43;6.75;;;;;;;;;;5056070;28;20104;-46
2021/07/19 11:02:10;;;;;;;11.85;7.22;;;;;;;;;;5055145;28;20043;-45
2021/07/19 11:04:46;;;;;;;7.32;5.97;;;;;;;;;;5055937;28;20040;-44
2021/07/19 11:07:14;;;;;;;8.98;6.78;;;;;;;;;;5056211;28;20025;-44
2021/07/19 11:09:40;;;;;;;11.35;7.03;;;;;;;;;;5055921;28;20021;-44
2021/07/19 11:12:07;;;;;;;11.00;6.90;;;;;;;;;;5056182;28;20493;-45
2021/07/19 11:14:42;;;;;;;14.38;6.25;;;;;;;;;;5055697;28;20072;-44
2021/07/19 11:17:11;;;;;;;7.20;6.00;;;;;;;;;;5055836;28;20056;-44
2021/07/19 11:19:39;;;;;;;8.07;6.38;;;;;;;;;;5055578;28;20024;-44
2021/07/19 11:22:25;;;;;;;7.20;5.82;;;;;;;;;;5055577;28;20032;-44
2021/07/19 11:24:52;;;;;;;9.82;6.60;;;;;;;;;;5053963;28;20025;-44
2021/07/19 11:27:29;;;;;;;9.38;5.57;;;;;;;;;;5055758;28;20028;-44
2021/07/19 11:30:00;;;;;;;8.55;6.45;;;;;;;;;;5055467;28;20021;-44
2021/07/19 11:32:29;;;;;;;11.30;6.72;;;;;;;;;;5055554;28;20095;-44
2021/07/19 11:35:06;;;;;;;8.95;6.53;;;;;;;;;;5055603;28;20071;-44
2021/07/19 11:37:34;;;;;;;7.82;6.13;;;;;;;;;;5055434;28;20031;-44
2021/07/19 11:40:00;;;;;;;13.10;9.18;;;;;;;;;;5055474;28;20021;-44
2021/07/19 11:42:43;;;;;;;6.88;6.18;;;;;;;;;;5055221;28;20504;-44
2021/07/19 11:45:14;;;;;;;5.82;5.22;;;;;;;;;;5055417;28;20035;-44
2021/07/19 11:47:41;;;;;;;8.25;5.85;;;;;;;;;;5055318;28;20469;-44
2021/07/19 11:50:08;;;;;;;8.82;6.07;;;;;;;;;;5055356;28;20488;-44
2021/07/19 11:52:34;;;;;;;8.63;5.75;;;;;;;;;;5055231;28;20538;-44
2021/07/19 11:55:00;;;;;;;8.20;5.55;;;;;;;;;;5055120;28;20040;-44
2021/07/19 11:57:26;;;;;;;6.45;5.68;;;;;;;;;;5055038;28;20060;-44
2021/07/19 11:59:52;;;;;;;7.63;5.97;;;;;;;;;;5055128;28;20107;-45
2021/07/19 12:02:27;;;;;;;10.63;5.90;;;;;;;;;;5054919;28;20017;-46
2021/07/19 12:04:54;;;;;;;7.70;5.32;;;;;;;;;;5055138;28;20025;-44
2021/07/19 12:07:24;;;;;;;10.68;5.80;;;;;;;;;;5054408;28;20017;-44
2021/07/19 12:09:58;;;;;;;6.70;5.97;;;;;;;;;;5055468;28;20033;-44
2021/07/19 12:12:24;;;;;;;7.57;5.85;;;;;;;;;;5054697;28;20439;-44
2021/07/19 12:15:00;;;;;;;7.18;5.95;;;;;;;;;;5054415;28;20119;-44
2021/07/19 12:17:36;;;;;;;8.02;6.18;;;;;;;;;;5054919;28;20057;-45
2021/07/19 12:20:03;;;;;;;5.90;5.30;;;;;;;;;;5054852;28;20017;-45
2021/07/19 12:22:32;;;;;;;6.05;5.32;;;;;;;;;;5054516;28;20503;-44
2021/07/19 12:24:58;;;;;;;9.07;5.47;;;;;;;;;;5054368;28;20025;-45
2021/07/19 12:27:25;;;;;;;7.10;5.70;;;;;;;;;;5054686;28;20017;-43
2021/07/19 12:29:54;;;;;;;6.55;5.43;;;;;;;;;;5054387;28;20035;-43
2021/07/19 12:32:20;;;;;;;10.27;5.95;;;;;;;;;;5054467;28;20049;-45
2021/07/19 12:34:47;;;;;;;7.03;6.30;;;;;;;;;;5054239;28;20041;-44
2021/07/19 12:37:18;;;;;;;7.78;6.03;;;;;;;;;;5053033;28;20060;-45
2021/07/19 12:39:52;;;;;;;7.03;5.32;;;;;;;;;;5054109;28;20029;-45
2021/07/19 12:42:28;;;;;;;7.93;6.07;;;;;;;;;;5054653;28;20032;-43
2021/07/19 12:44:57;;;;;;;6.93;6.05;;;;;;;;;;5054219;28;20036;-45
2021/07/19 12:47:24;;;;;;;10.45;7.10;;;;;;;;;;5054246;28;20025;-43
2021/07/19 12:49:50;;;;;;;7.15;6.38;;;;;;;;;;5054035;28;20031;-46
2021/07/19 12:52:17;;;;;;;7.82;5.55;;;;;;;;;;5053974;28;20021;-44
2021/07/19 12:54:57;;;;;;;7.85;5.88;;;;;;;;;;5053644;28;20032;-42
2021/07/19 12:57:24;;;;;;;9.15;6.60;;;;;;;;;;5053933;28;20025;-42
2021/07/19 12:59:51;;;;;;;8.18;6.68;;;;;;;;;;5053719;28;20029;-43
2021/07/19 13:02:19;;;;;;;9.15;7.38;;;;;;;;;;5053639;28;20049;-42
2021/07/19 13:04:48;;;;;;;8.05;6.47;;;;;;;;;;5053280;28;20452;-44
2021/07/19 13:07:24;;;;;;;6.65;5.95;;;;;;;;;;5053197;28;20025;-43
2021/07/19 13:09:54;;;;;;;7.38;6.57;;;;;;;;;;5050778;28;20036;-44
2021/07/19 13:12:20;;;;;;;12.00;8.90;;;;;;;;;;5053066;28;20040;-45
2021/07/19 13:14:48;;;;;;;11.38;8.45;;;;;;;;;;5052548;28;20393;-43
2021/07/19 13:17:17;;;;;;;120.32;86.07;;;;;;;;;;5052437;28;20519;-43
2021/07/19 13:19:47;;;;;;;53.40;40.72;;;;;;;;;;5036432;28;20033;-43
2021/07/19 13:22:13;;;;;;;13.25;10.60;;;;;;;;;;5033394;28;20533;-48
2021/07/19 13:24:41;;;;;;;31.65;22.98;;;;;;;;;;5033176;28;20428;-45
2021/07/19 13:27:08;;;;;;;64.57;50.38;;;;;;;;;;5033300;28;20025;-45
2021/07/19 13:29:34;;;;;;;33.88;25.15;;;;;;;;;;5033310;28;20029;-49
2021/07/19 13:32:12;;;;;;;70.65;53.58;;;;;;;;;;5033076;28;20021;-50
2021/07/19 13:34:38;;;;;;;22.02;16.45;;;;;;;;;;5033104;28;20474;-54
2021/07/19 13:37:05;;;;;;;46.45;36.45;;;;;;;;;;5033192;28;20159;-47
2021/07/19 13:39:34;;;;;;;14.02;11.98;;;;;;;;;;5033405;28;20373;-54
2021/07/19 13:42:01;;;;;;;18.73;12.35;;;;;;;;;;5033538;28;20369;-54
2021/07/19 13:44:27;;;;;;;24.13;14.57;;;;;;;;;;5032955;28;20040;-47
2021/07/19 13:46:54;;;;;;;19.85;12.55;;;;;;;;;;5033084;28;20025;-47
2021/07/19 13:49:20;;;;;;;25.73;19.05;;;;;;;;;;5033315;28;20386;-49
2021/07/19 13:51:46;;;;;;;23.02;14.85;;;;;;;;;;5043013;28;20638;-48
2021/07/19 13:54:12;;;;;;;33.03;21.92;;;;;;;;;;5051344;28;20021;-47
2021/07/19 13:56:38;;;;;;;16.42;11.35;;;;;;;;;;5051770;28;20358;-47
2021/07/19 13:59:04;;;;;;;34.55;23.70;;;;;;;;;;5051477;28;20062;-49
2021/07/19 14:01:35;;;;;;;17.52;11.50;;;;;;;;;;5051756;28;20036;-47
2021/07/19 14:04:01;;;;;;;9.75;7.35;;;;;;;;;;5050017;28;20540;-47
2021/07/19 14:06:27;;;;;;;29.10;17.17;;;;;;;;;;5033035;28;20030;-46
2021/07/19 14:08:53;;;;;;;25.75;18.63;;;;;;;;;;5033101;28;20102;-45
2021/07/19 14:11:19;;;;;;;18.42;13.73;;;;;;;;;;5033128;28;20037;-46
2021/07/19 14:13:45;;;;;;;16.48;10.57;;;;;;;;;;5032793;28;20028;-47
2021/07/19 14:16:12;;;;;;;13.13;9.38;;;;;;;;;;5032511;28;20049;-45
2021/07/19 14:18:38;;;;;;;9.57;7.40;;;;;;;;;;5033024;28;20026;-44
2021/07/19 14:21:06;;;;;;;17.70;12.32;;;;;;;;;;5032456;28;20393;-46
2021/07/19 14:23:32;;;;;;;15.15;12.52;;;;;;;;;;5032944;28;20025;-44
2021/07/19 14:25:58;;;;;;;21.25;14.77;;;;;;;;;;5048068;28;20035;-47
2021/07/19 14:28:24;;;;;;;17.50;13.70;;;;;;;;;;5032838;28;20056;-47
2021/07/19 14:30:50;;;;;;;17.15;12.73;;;;;;;;;;5035702;28;20409;-47
2021/07/19 14:33:16;;;;;;;17.10;10.18;;;;;;;;;;5036619;28;20034;-46
2021/07/19 14:35:42;;;;;;;18.40;13.18;;;;;;;;;;5053486;28;20033;-47